sensor_id;sensor_type;location;lat;lon;timestamp;P1;durP1;ratioP1;P2;durP2;ratioP2
60847;SDS011;46681;47.696;9.140;2023-08-07T00:01:06;1.60;;;1.50;;
60847;SDS011;46681;47.696;9.140;2023-08-07T00:03:32;1.73;;;1.40;;
60847;SDS011;46681;47.696;9.140;2023-08-07T00:05:58;1.90;;;1.80;;
60847;SDS011;46681;47.696;9.140;2023-08-07T00:08:25;1.53;;;1.43;;
60847;SDS011;46681;47.696;9.140;2023-08-07T00:10:50;1.27;;;1.10;;
60847;SDS011;46681;47.696;9.140;2023-08-07T00:13:17;1.63;;;1.53;;
60847;SDS011;46681;47.696;9.140;2023-08-07T00:15:44;1.73;;;1.40;;
60847;SDS011;46681;47.696;9.140;2023-08-07T00:18:09;1.60;;;1.33;;
60847;SDS011;46681;47.696;9.140;2023-08-07T00:20:35;1.77;;;1.20;;
60847;SDS011;46681;47.696;9.140;2023-08-07T00:23:00;2.57;;;1.40;;
60847;SDS011;46681;47.696;9.140;2023-08-07T00:25:28;1.80;;;1.70;;
60847;SDS011;46681;47.696;9.140;2023-08-07T00:27:54;2.20;;;1.63;;
60847;SDS011;46681;47.696;9.140;2023-08-07T00:30:20;3.27;;;1.83;;
60847;SDS011;46681;47.696;9.140;2023-08-07T00:32:46;1.90;;;1.77;;
60847;SDS011;46681;47.696;9.140;2023-08-07T00:35:11;1.60;;;1.50;;
60847;SDS011;46681;47.696;9.140;2023-08-07T00:37:37;1.50;;;1.40;;
60847;SDS011;46681;47.696;9.140;2023-08-07T00:40:03;2.47;;;1.70;;
60847;SDS011;46681;47.696;9.140;2023-08-07T00:42:29;1.40;;;1.30;;
60847;SDS011;46681;47.696;9.140;2023-08-07T00:44:54;1.37;;;1.27;;
60847;SDS011;46681;47.696;9.140;2023-08-07T00:47:20;1.87;;;1.67;;
60847;SDS011;46681;47.696;9.140;2023-08-07T00:49:46;2.07;;;1.50;;
60847;SDS011;46681;47.696;9.140;2023-08-07T00:52:13;1.70;;;1.50;;
60847;SDS011;46681;47.696;9.140;2023-08-07T00:54:38;1.70;;;1.60;;
60847;SDS011;46681;47.696;9.140;2023-08-07T00:57:10;1.60;;;1.50;;
60847;SDS011;46681;47.696;9.140;2023-08-07T00:59:38;2.07;;;1.23;;
60847;SDS011;46681;47.696;9.140;2023-08-07T01:02:05;4.43;;;1.77;;
60847;SDS011;46681;47.696;9.140;2023-08-07T01:04:31;1.87;;;1.70;;
60847;SDS011;46681;47.696;9.140;2023-08-07T01:06:57;2.10;;;1.60;;
60847;SDS011;46681;47.696;9.140;2023-08-07T01:09:23;1.60;;;1.50;;
60847;SDS011;46681;47.696;9.140;2023-08-07T01:12:08;2.80;;;1.50;;
60847;SDS011;46681;47.696;9.140;2023-08-07T01:17:10;2.70;;;1.60;;
60847;SDS011;46681;47.696;9.140;2023-08-07T01:19:39;2.17;;;1.77;;
60847;SDS011;46681;47.696;9.140;2023-08-07T01:22:09;2.13;;;1.70;;
60847;SDS011;46681;47.696;9.140;2023-08-07T01:24:38;1.60;;;1.50;;
60847;SDS011;46681;47.696;9.140;2023-08-07T01:29:43;1.30;;;1.20;;
60847;SDS011;46681;47.696;9.140;2023-08-07T01:35:20;2.73;;;1.63;;
60847;SDS011;46681;47.696;9.140;2023-08-07T01:37:50;1.10;;;1.10;;
60847;SDS011;46681;47.696;9.140;2023-08-07T01:40:19;1.43;;;1.37;;
60847;SDS011;46681;47.696;9.140;2023-08-07T01:42:48;1.30;;;1.20;;
60847;SDS011;46681;47.696;9.140;2023-08-07T01:45:21;1.63;;;1.53;;
60847;SDS011;46681;47.696;9.140;2023-08-07T01:47:50;3.00;;;1.83;;
60847;SDS011;46681;47.696;9.140;2023-08-07T01:50:16;3.07;;;1.33;;
60847;SDS011;46681;47.696;9.140;2023-08-07T01:52:41;2.87;;;1.53;;
60847;SDS011;46681;47.696;9.140;2023-08-07T01:55:07;2.77;;;1.67;;
60847;SDS011;46681;47.696;9.140;2023-08-07T01:57:33;2.70;;;1.40;;
60847;SDS011;46681;47.696;9.140;2023-08-07T02:00:01;1.57;;;1.47;;
60847;SDS011;46681;47.696;9.140;2023-08-07T02:02:27;2.37;;;1.40;;
60847;SDS011;46681;47.696;9.140;2023-08-07T02:04:59;2.17;;;1.73;;
60847;SDS011;46681;47.696;9.140;2023-08-07T02:07:25;1.73;;;1.63;;
60847;SDS011;46681;47.696;9.140;2023-08-07T02:09:50;1.77;;;1.63;;
60847;SDS011;46681;47.696;9.140;2023-08-07T02:12:16;1.80;;;1.63;;
60847;SDS011;46681;47.696;9.140;2023-08-07T02:14:43;1.70;;;1.60;;
60847;SDS011;46681;47.696;9.140;2023-08-07T02:17:08;2.20;;;1.50;;
60847;SDS011;46681;47.696;9.140;2023-08-07T02:19:34;1.87;;;1.77;;
60847;SDS011;46681;47.696;9.140;2023-08-07T02:21:59;1.50;;;1.40;;
60847;SDS011;46681;47.696;9.140;2023-08-07T02:24:25;1.60;;;1.50;;
60847;SDS011;46681;47.696;9.140;2023-08-07T02:26:51;2.23;;;1.87;;
60847;SDS011;46681;47.696;9.140;2023-08-07T02:29:16;1.63;;;1.57;;
60847;SDS011;46681;47.696;9.140;2023-08-07T02:31:46;1.47;;;1.47;;
60847;SDS011;46681;47.696;9.140;2023-08-07T02:34:14;2.10;;;1.50;;
60847;SDS011;46681;47.696;9.140;2023-08-07T02:36:39;1.50;;;1.40;;
60847;SDS011;46681;47.696;9.140;2023-08-07T02:39:05;2.10;;;1.90;;
60847;SDS011;46681;47.696;9.140;2023-08-07T02:41:31;1.13;;;1.13;;
60847;SDS011;46681;47.696;9.140;2023-08-07T02:43:57;1.80;;;1.50;;
60847;SDS011;46681;47.696;9.140;2023-08-07T02:46:25;3.60;;;1.70;;
60847;SDS011;46681;47.696;9.140;2023-08-07T02:48:51;1.83;;;1.20;;
60847;SDS011;46681;47.696;9.140;2023-08-07T02:51:17;2.07;;;1.60;;
60847;SDS011;46681;47.696;9.140;2023-08-07T02:53:46;1.73;;;1.50;;
60847;SDS011;46681;47.696;9.140;2023-08-07T02:56:11;3.47;;;1.60;;
60847;SDS011;46681;47.696;9.140;2023-08-07T02:58:37;3.80;;;1.63;;
60847;SDS011;46681;47.696;9.140;2023-08-07T03:01:07;3.00;;;1.77;;
60847;SDS011;46681;47.696;9.140;2023-08-07T03:03:35;2.30;;;1.90;;
60847;SDS011;46681;47.696;9.140;2023-08-07T03:06:00;3.20;;;1.33;;
60847;SDS011;46681;47.696;9.140;2023-08-07T03:08:26;1.80;;;1.70;;
60847;SDS011;46681;47.696;9.140;2023-08-07T03:10:54;1.53;;;1.43;;
60847;SDS011;46681;47.696;9.140;2023-08-07T03:13:23;1.67;;;1.57;;
60847;SDS011;46681;47.696;9.140;2023-08-07T03:15:50;1.40;;;1.27;;
60847;SDS011;46681;47.696;9.140;2023-08-07T03:18:23;1.40;;;1.40;;
60847;SDS011;46681;47.696;9.140;2023-08-07T03:20:49;2.57;;;1.50;;
60847;SDS011;46681;47.696;9.140;2023-08-07T03:23:14;2.90;;;1.50;;
60847;SDS011;46681;47.696;9.140;2023-08-07T03:25:40;1.50;;;1.40;;
60847;SDS011;46681;47.696;9.140;2023-08-07T03:28:06;1.60;;;1.40;;
60847;SDS011;46681;47.696;9.140;2023-08-07T03:30:34;1.80;;;1.70;;
60847;SDS011;46681;47.696;9.140;2023-08-07T03:32:59;1.53;;;1.43;;
60847;SDS011;46681;47.696;9.140;2023-08-07T03:35:26;1.47;;;1.37;;
60847;SDS011;46681;47.696;9.140;2023-08-07T03:37:52;1.60;;;1.50;;
60847;SDS011;46681;47.696;9.140;2023-08-07T03:40:17;1.80;;;1.70;;
60847;SDS011;46681;47.696;9.140;2023-08-07T03:42:43;3.30;;;1.87;;
60847;SDS011;46681;47.696;9.140;2023-08-07T03:45:08;2.83;;;1.53;;
60847;SDS011;46681;47.696;9.140;2023-08-07T03:47:34;4.73;;;1.77;;
60847;SDS011;46681;47.696;9.140;2023-08-07T03:50:01;1.60;;;1.50;;
60847;SDS011;46681;47.696;9.140;2023-08-07T03:52:28;1.73;;;1.63;;
60847;SDS011;46681;47.696;9.140;2023-08-07T03:54:53;1.87;;;1.77;;
60847;SDS011;46681;47.696;9.140;2023-08-07T03:57:21;2.20;;;1.67;;
60847;SDS011;46681;47.696;9.140;2023-08-07T03:59:47;1.70;;;1.60;;
60847;SDS011;46681;47.696;9.140;2023-08-07T04:02:12;3.17;;;1.70;;
60847;SDS011;46681;47.696;9.140;2023-08-07T04:04:41;1.53;;;1.43;;
60847;SDS011;46681;47.696;9.140;2023-08-07T04:07:06;1.70;;;1.60;;
60847;SDS011;46681;47.696;9.140;2023-08-07T04:09:32;1.80;;;1.47;;
60847;SDS011;46681;47.696;9.140;2023-08-07T04:11:57;1.57;;;1.20;;
60847;SDS011;46681;47.696;9.140;2023-08-07T04:14:25;2.53;;;1.67;;
60847;SDS011;46681;47.696;9.140;2023-08-07T04:16:51;1.60;;;1.50;;
60847;SDS011;46681;47.696;9.140;2023-08-07T04:19:16;3.27;;;1.50;;
60847;SDS011;46681;47.696;9.140;2023-08-07T04:21:43;2.23;;;1.40;;
60847;SDS011;46681;47.696;9.140;2023-08-07T04:24:09;4.63;;;1.70;;
60847;SDS011;46681;47.696;9.140;2023-08-07T04:26:34;5.03;;;1.60;;
60847;SDS011;46681;47.696;9.140;2023-08-07T04:29:01;1.23;;;1.13;;
60847;SDS011;46681;47.696;9.140;2023-08-07T04:31:27;1.30;;;1.20;;
60847;SDS011;46681;47.696;9.140;2023-08-07T04:33:57;1.40;;;1.30;;
60847;SDS011;46681;47.696;9.140;2023-08-07T04:36:22;2.70;;;1.50;;
60847;SDS011;46681;47.696;9.140;2023-08-07T04:38:51;3.13;;;1.63;;
60847;SDS011;46681;47.696;9.140;2023-08-07T04:41:17;1.80;;;1.17;;
60847;SDS011;46681;47.696;9.140;2023-08-07T04:43:44;1.43;;;1.33;;
60847;SDS011;46681;47.696;9.140;2023-08-07T04:46:12;1.70;;;1.60;;
60847;SDS011;46681;47.696;9.140;2023-08-07T04:48:38;1.87;;;1.40;;
60847;SDS011;46681;47.696;9.140;2023-08-07T04:51:04;1.80;;;1.70;;
60847;SDS011;46681;47.696;9.140;2023-08-07T04:53:31;2.43;;;1.40;;
60847;SDS011;46681;47.696;9.140;2023-08-07T04:55:56;2.10;;;1.80;;
60847;SDS011;46681;47.696;9.140;2023-08-07T04:58:22;2.87;;;1.53;;
60847;SDS011;46681;47.696;9.140;2023-08-07T05:00:47;1.40;;;1.30;;
60847;SDS011;46681;47.696;9.140;2023-08-07T05:03:15;1.47;;;1.40;;
60847;SDS011;46681;47.696;9.140;2023-08-07T05:05:43;2.00;;;1.63;;
60847;SDS011;46681;47.696;9.140;2023-08-07T05:08:09;1.43;;;1.37;;
60847;SDS011;46681;47.696;9.140;2023-08-07T05:10:35;2.17;;;1.63;;
60847;SDS011;46681;47.696;9.140;2023-08-07T05:13:00;1.40;;;1.30;;
60847;SDS011;46681;47.696;9.140;2023-08-07T05:15:29;1.37;;;1.37;;
60847;SDS011;46681;47.696;9.140;2023-08-07T05:17:57;1.40;;;1.30;;
60847;SDS011;46681;47.696;9.140;2023-08-07T05:20:23;1.73;;;1.60;;
60847;SDS011;46681;47.696;9.140;2023-08-07T05:22:51;1.47;;;1.37;;
60847;SDS011;46681;47.696;9.140;2023-08-07T05:25:19;1.70;;;1.60;;
60847;SDS011;46681;47.696;9.140;2023-08-07T05:27:51;6.80;;;2.07;;
60847;SDS011;46681;47.696;9.140;2023-08-07T05:30:18;5.13;;;2.00;;
60847;SDS011;46681;47.696;9.140;2023-08-07T05:32:48;5.07;;;1.70;;
60847;SDS011;46681;47.696;9.140;2023-08-07T05:35:14;4.13;;;1.77;;
60847;SDS011;46681;47.696;9.140;2023-08-07T05:37:50;7.97;;;2.60;;
60847;SDS011;46681;47.696;9.140;2023-08-07T05:40:18;12.03;;;2.00;;
60847;SDS011;46681;47.696;9.140;2023-08-07T05:45:38;4.37;;;2.10;;
60847;SDS011;46681;47.696;9.140;2023-08-07T05:54:29;6.27;;;2.13;;
60847;SDS011;46681;47.696;9.140;2023-08-07T05:56:56;3.37;;;1.63;;
60847;SDS011;46681;47.696;9.140;2023-08-07T05:59:31;3.70;;;1.67;;
60847;SDS011;46681;47.696;9.140;2023-08-07T06:01:56;8.17;;;2.10;;
60847;SDS011;46681;47.696;9.140;2023-08-07T06:04:25;3.63;;;1.90;;
60847;SDS011;46681;47.696;9.140;2023-08-07T06:06:55;5.47;;;2.30;;
60847;SDS011;46681;47.696;9.140;2023-08-07T06:09:21;7.00;;;2.17;;
60847;SDS011;46681;47.696;9.140;2023-08-07T06:11:49;2.27;;;1.53;;
60847;SDS011;46681;47.696;9.140;2023-08-07T06:14:17;4.10;;;1.70;;
60847;SDS011;46681;47.696;9.140;2023-08-07T06:16:45;3.73;;;1.83;;
60847;SDS011;46681;47.696;9.140;2023-08-07T06:19:11;2.43;;;1.60;;
60847;SDS011;46681;47.696;9.140;2023-08-07T06:21:43;3.03;;;1.60;;
60847;SDS011;46681;47.696;9.140;2023-08-07T06:24:09;3.13;;;1.67;;
60847;SDS011;46681;47.696;9.140;2023-08-07T06:26:35;4.33;;;1.50;;
60847;SDS011;46681;47.696;9.140;2023-08-07T06:29:02;3.27;;;1.47;;
60847;SDS011;46681;47.696;9.140;2023-08-07T06:31:28;9.40;;;1.80;;
60847;SDS011;46681;47.696;9.140;2023-08-07T06:33:56;3.13;;;1.47;;
60847;SDS011;46681;47.696;9.140;2023-08-07T06:36:21;3.00;;;1.53;;
60847;SDS011;46681;47.696;9.140;2023-08-07T06:38:47;4.63;;;1.70;;
60847;SDS011;46681;47.696;9.140;2023-08-07T06:41:17;3.80;;;2.00;;
60847;SDS011;46681;47.696;9.140;2023-08-07T06:43:43;5.73;;;1.70;;
60847;SDS011;46681;47.696;9.140;2023-08-07T06:46:12;7.77;;;1.73;;
60847;SDS011;46681;47.696;9.140;2023-08-07T06:48:38;6.40;;;1.70;;
60847;SDS011;46681;47.696;9.140;2023-08-07T06:51:04;3.30;;;1.57;;
60847;SDS011;46681;47.696;9.140;2023-08-07T12:29:55;1.03;;;0.93;;
60847;SDS011;46681;47.696;9.140;2023-08-07T12:32:21;3.63;;;1.40;;
60847;SDS011;46681;47.696;9.140;2023-08-07T12:35:09;2.50;;;0.90;;
60847;SDS011;46681;47.696;9.140;2023-08-07T12:37:49;0.60;;;0.60;;
60847;SDS011;46681;47.696;9.140;2023-08-07T12:40:14;0.87;;;0.80;;
60847;SDS011;46681;47.696;9.140;2023-08-07T12:42:53;0.80;;;0.80;;
60847;SDS011;46681;47.696;9.140;2023-08-07T12:48:26;0.80;;;0.80;;
60847;SDS011;46681;47.696;9.140;2023-08-07T12:51:07;0.70;;;0.70;;
60847;SDS011;46681;47.696;9.140;2023-08-07T12:57:29;0.70;;;0.70;;
60847;SDS011;46681;47.696;9.140;2023-08-07T13:06:34;0.70;;;0.70;;
60847;SDS011;46681;47.696;9.140;2023-08-07T13:09:15;0.80;;;0.80;;
60847;SDS011;46681;47.696;9.140;2023-08-07T13:15:23;0.80;;;0.70;;
60847;SDS011;46681;47.696;9.140;2023-08-07T13:18:13;2.07;;;0.90;;
60847;SDS011;46681;47.696;9.140;2023-08-07T13:21:00;1.00;;;1.00;;
60847;SDS011;46681;47.696;9.140;2023-08-07T13:23:38;0.80;;;0.80;;
60847;SDS011;46681;47.696;9.140;2023-08-07T13:26:22;0.73;;;0.73;;
60847;SDS011;46681;47.696;9.140;2023-08-07T13:29:26;0.80;;;0.80;;
60847;SDS011;46681;47.696;9.140;2023-08-07T13:32:01;2.43;;;0.90;;
60847;SDS011;46681;47.696;9.140;2023-08-07T13:35:01;1.80;;;0.80;;
60847;SDS011;46681;47.696;9.140;2023-08-07T13:40:34;0.70;;;0.70;;
60847;SDS011;46681;47.696;9.140;2023-08-07T13:43:47;0.93;;;0.70;;
60847;SDS011;46681;47.696;9.140;2023-08-07T13:46:54;0.87;;;0.80;;
60847;SDS011;46681;47.696;9.140;2023-08-07T13:49:52;0.67;;;0.60;;
60847;SDS011;46681;47.696;9.140;2023-08-07T13:53:03;0.90;;;0.87;;
60847;SDS011;46681;47.696;9.140;2023-08-07T13:58:53;1.23;;;0.70;;
60847;SDS011;46681;47.696;9.140;2023-08-07T14:04:36;1.23;;;0.70;;
60847;SDS011;46681;47.696;9.140;2023-08-07T14:07:38;1.83;;;0.80;;
60847;SDS011;46681;47.696;9.140;2023-08-07T14:16:04;0.77;;;0.73;;
60847;SDS011;46681;47.696;9.140;2023-08-07T14:18:53;0.90;;;0.70;;
60847;SDS011;46681;47.696;9.140;2023-08-07T14:21:36;1.33;;;1.10;;
60847;SDS011;46681;47.696;9.140;2023-08-07T14:24:30;4.10;;;1.13;;
60847;SDS011;46681;47.696;9.140;2023-08-07T14:26:58;1.13;;;1.00;;
60847;SDS011;46681;47.696;9.140;2023-08-07T14:29:33;1.50;;;1.40;;
60847;SDS011;46681;47.696;9.140;2023-08-07T14:38:57;2.80;;;1.00;;
60847;SDS011;46681;47.696;9.140;2023-08-07T14:41:54;1.50;;;1.03;;
60847;SDS011;46681;47.696;9.140;2023-08-07T14:44:39;1.80;;;1.27;;
60847;SDS011;46681;47.696;9.140;2023-08-07T14:47:32;1.93;;;1.30;;
60847;SDS011;46681;47.696;9.140;2023-08-07T14:50:22;1.60;;;1.03;;
60847;SDS011;46681;47.696;9.140;2023-08-07T14:53:08;0.90;;;0.90;;
60847;SDS011;46681;47.696;9.140;2023-08-07T14:55:43;1.20;;;1.10;;
60847;SDS011;46681;47.696;9.140;2023-08-07T14:58:33;1.10;;;1.10;;
60847;SDS011;46681;47.696;9.140;2023-08-07T15:01:25;1.30;;;1.20;;
60847;SDS011;46681;47.696;9.140;2023-08-07T15:04:26;3.23;;;1.67;;
60847;SDS011;46681;47.696;9.140;2023-08-07T15:09:53;2.10;;;1.00;;
60847;SDS011;46681;47.696;9.140;2023-08-07T15:15:29;1.20;;;1.00;;
60847;SDS011;46681;47.696;9.140;2023-08-07T15:18:02;1.47;;;1.00;;
60847;SDS011;46681;47.696;9.140;2023-08-07T15:20:59;0.87;;;0.87;;
60847;SDS011;46681;47.696;9.140;2023-08-07T15:23:28;1.87;;;1.10;;
60847;SDS011;46681;47.696;9.140;2023-08-07T15:26:13;0.90;;;0.90;;
60847;SDS011;46681;47.696;9.140;2023-08-07T15:28:54;2.97;;;1.00;;
60847;SDS011;46681;47.696;9.140;2023-08-07T15:31:35;1.80;;;0.87;;
60847;SDS011;46681;47.696;9.140;2023-08-07T15:34:09;1.67;;;0.97;;
60847;SDS011;46681;47.696;9.140;2023-08-07T15:36:50;1.80;;;1.00;;
60847;SDS011;46681;47.696;9.140;2023-08-07T15:39:30;0.80;;;0.80;;
60847;SDS011;46681;47.696;9.140;2023-08-07T15:47:55;0.80;;;0.80;;
60847;SDS011;46681;47.696;9.140;2023-08-07T15:50:33;1.03;;;0.90;;
60847;SDS011;46681;47.696;9.140;2023-08-07T15:56:07;1.33;;;1.00;;
60847;SDS011;46681;47.696;9.140;2023-08-07T16:01:26;1.03;;;0.97;;
60847;SDS011;46681;47.696;9.140;2023-08-07T16:03:57;1.90;;;0.90;;
60847;SDS011;46681;47.696;9.140;2023-08-07T16:06:34;1.57;;;0.90;;
60847;SDS011;46681;47.696;9.140;2023-08-07T16:09:01;1.10;;;1.00;;
60847;SDS011;46681;47.696;9.140;2023-08-07T16:11:30;0.90;;;0.90;;
60847;SDS011;46681;47.696;9.140;2023-08-07T16:13:56;2.77;;;1.00;;
60847;SDS011;46681;47.696;9.140;2023-08-07T16:16:31;1.80;;;0.90;;
60847;SDS011;46681;47.696;9.140;2023-08-07T16:19:01;1.23;;;0.83;;
60847;SDS011;46681;47.696;9.140;2023-08-07T16:21:33;1.50;;;0.80;;
60847;SDS011;46681;47.696;9.140;2023-08-07T16:24:01;1.57;;;0.70;;
60847;SDS011;46681;47.696;9.140;2023-08-07T16:26:27;2.10;;;0.77;;
60847;SDS011;46681;47.696;9.140;2023-08-07T16:28:55;0.70;;;0.70;;
60847;SDS011;46681;47.696;9.140;2023-08-07T16:31:31;0.90;;;0.90;;
60847;SDS011;46681;47.696;9.140;2023-08-07T16:33:59;1.90;;;0.80;;
60847;SDS011;46681;47.696;9.140;2023-08-07T16:36:27;2.10;;;0.90;;
60847;SDS011;46681;47.696;9.140;2023-08-07T16:39:02;0.80;;;0.80;;
60847;SDS011;46681;47.696;9.140;2023-08-07T16:41:28;0.90;;;0.90;;
60847;SDS011;46681;47.696;9.140;2023-08-07T16:43:55;1.00;;;1.00;;
60847;SDS011;46681;47.696;9.140;2023-08-07T16:46:21;0.90;;;0.90;;
60847;SDS011;46681;47.696;9.140;2023-08-07T16:48:55;1.03;;;0.80;;
60847;SDS011;46681;47.696;9.140;2023-08-07T16:51:29;0.67;;;0.67;;
60847;SDS011;46681;47.696;9.140;2023-08-07T16:53:56;0.80;;;0.77;;
60847;SDS011;46681;47.696;9.140;2023-08-07T16:56:43;1.00;;;1.00;;
60847;SDS011;46681;47.696;9.140;2023-08-07T17:02:15;3.97;;;1.40;;
60847;SDS011;46681;47.696;9.140;2023-08-07T17:04:48;4.43;;;1.10;;
60847;SDS011;46681;47.696;9.140;2023-08-07T17:07:20;1.30;;;1.20;;
60847;SDS011;46681;47.696;9.140;2023-08-07T17:10:10;4.40;;;1.30;;
60847;SDS011;46681;47.696;9.140;2023-08-07T17:12:46;2.33;;;1.17;;
60847;SDS011;46681;47.696;9.140;2023-08-07T17:15:17;5.77;;;1.13;;
60847;SDS011;46681;47.696;9.140;2023-08-07T17:17:51;1.23;;;1.13;;
60847;SDS011;46681;47.696;9.140;2023-08-07T17:20:16;3.27;;;1.20;;
60847;SDS011;46681;47.696;9.140;2023-08-07T17:22:54;1.87;;;1.57;;
60847;SDS011;46681;47.696;9.140;2023-08-07T17:25:24;4.20;;;1.30;;
60847;SDS011;46681;47.696;9.140;2023-08-07T17:27:52;1.33;;;1.20;;
60847;SDS011;46681;47.696;9.140;2023-08-07T17:30:23;3.03;;;1.60;;
60847;SDS011;46681;47.696;9.140;2023-08-07T17:32:56;1.87;;;1.00;;
60847;SDS011;46681;47.696;9.140;2023-08-07T17:35:21;1.30;;;1.20;;
60847;SDS011;46681;47.696;9.140;2023-08-07T17:37:49;1.80;;;0.90;;
60847;SDS011;46681;47.696;9.140;2023-08-07T17:40:22;2.80;;;1.23;;
60847;SDS011;46681;47.696;9.140;2023-08-07T17:42:53;1.17;;;0.93;;
60847;SDS011;46681;47.696;9.140;2023-08-07T17:45:19;0.83;;;0.80;;
60847;SDS011;46681;47.696;9.140;2023-08-07T17:47:45;1.30;;;0.97;;
60847;SDS011;46681;47.696;9.140;2023-08-07T17:50:12;6.00;;;1.00;;
60847;SDS011;46681;47.696;9.140;2023-08-07T17:52:49;1.10;;;1.00;;
60847;SDS011;46681;47.696;9.140;2023-08-07T17:55:16;2.40;;;1.10;;
60847;SDS011;46681;47.696;9.140;2023-08-07T17:57:49;2.80;;;1.20;;
60847;SDS011;46681;47.696;9.140;2023-08-07T18:00:15;1.07;;;0.90;;
60847;SDS011;46681;47.696;9.140;2023-08-07T18:02:41;2.73;;;1.17;;
60847;SDS011;46681;47.696;9.140;2023-08-07T18:05:06;1.47;;;1.00;;
60847;SDS011;46681;47.696;9.140;2023-08-07T18:07:44;1.03;;;1.00;;
60847;SDS011;46681;47.696;9.140;2023-08-07T18:10:13;2.17;;;0.97;;
60847;SDS011;46681;47.696;9.140;2023-08-07T18:12:38;1.23;;;1.10;;
60847;SDS011;46681;47.696;9.140;2023-08-07T18:15:09;1.50;;;1.27;;
60847;SDS011;46681;47.696;9.140;2023-08-07T18:17:37;1.43;;;1.33;;
60847;SDS011;46681;47.696;9.140;2023-08-07T18:20:02;2.53;;;1.23;;
60847;SDS011;46681;47.696;9.140;2023-08-07T18:22:38;1.03;;;0.90;;
60847;SDS011;46681;47.696;9.140;2023-08-07T18:25:04;1.67;;;1.00;;
60847;SDS011;46681;47.696;9.140;2023-08-07T18:27:30;1.23;;;0.93;;
60847;SDS011;46681;47.696;9.140;2023-08-07T18:29:56;1.23;;;0.90;;
60847;SDS011;46681;47.696;9.140;2023-08-07T18:32:21;1.07;;;0.90;;
60847;SDS011;46681;47.696;9.140;2023-08-07T18:35:01;3.60;;;1.10;;
60847;SDS011;46681;47.696;9.140;2023-08-07T18:37:28;1.00;;;0.90;;
60847;SDS011;46681;47.696;9.140;2023-08-07T18:39:54;1.10;;;0.90;;
60847;SDS011;46681;47.696;9.140;2023-08-07T18:42:20;2.10;;;1.00;;
60847;SDS011;46681;47.696;9.140;2023-08-07T18:44:46;0.90;;;0.90;;
60847;SDS011;46681;47.696;9.140;2023-08-07T18:47:11;1.23;;;0.90;;
60847;SDS011;46681;47.696;9.140;2023-08-07T18:49:38;1.10;;;1.10;;
60847;SDS011;46681;47.696;9.140;2023-08-07T18:52:08;1.10;;;0.93;;
60847;SDS011;46681;47.696;9.140;2023-08-07T18:54:35;0.97;;;0.97;;
60847;SDS011;46681;47.696;9.140;2023-08-07T18:57:01;1.57;;;1.00;;
60847;SDS011;46681;47.696;9.140;2023-08-07T18:59:27;1.20;;;1.10;;
60847;SDS011;46681;47.696;9.140;2023-08-07T19:01:56;1.87;;;1.20;;
60847;SDS011;46681;47.696;9.140;2023-08-07T19:04:21;1.60;;;1.00;;
60847;SDS011;46681;47.696;9.140;2023-08-07T19:06:50;1.50;;;1.10;;
60847;SDS011;46681;47.696;9.140;2023-08-07T19:09:18;1.00;;;1.00;;
60847;SDS011;46681;47.696;9.140;2023-08-07T19:11:44;0.80;;;0.80;;
60847;SDS011;46681;47.696;9.140;2023-08-07T19:14:09;1.17;;;0.90;;
60847;SDS011;46681;47.696;9.140;2023-08-07T19:16:35;1.27;;;0.90;;
60847;SDS011;46681;47.696;9.140;2023-08-07T19:19:01;1.60;;;1.00;;
60847;SDS011;46681;47.696;9.140;2023-08-07T19:21:32;0.93;;;0.93;;
60847;SDS011;46681;47.696;9.140;2023-08-07T19:24:00;1.10;;;1.00;;
60847;SDS011;46681;47.696;9.140;2023-08-07T19:26:26;2.50;;;1.10;;
60847;SDS011;46681;47.696;9.140;2023-08-07T19:28:53;0.93;;;0.70;;
60847;SDS011;46681;47.696;9.140;2023-08-07T19:31:21;2.60;;;1.30;;
60847;SDS011;46681;47.696;9.140;2023-08-07T19:33:50;2.30;;;1.10;;
60847;SDS011;46681;47.696;9.140;2023-08-07T19:36:18;2.50;;;1.67;;
60847;SDS011;46681;47.696;9.140;2023-08-07T19:38:43;1.00;;;1.00;;
60847;SDS011;46681;47.696;9.140;2023-08-07T19:41:11;2.13;;;1.30;;
60847;SDS011;46681;47.696;9.140;2023-08-07T19:43:39;1.37;;;1.00;;
60847;SDS011;46681;47.696;9.140;2023-08-07T19:46:08;2.07;;;1.13;;
60847;SDS011;46681;47.696;9.140;2023-08-07T19:48:41;1.30;;;1.20;;
60847;SDS011;46681;47.696;9.140;2023-08-07T19:51:11;1.17;;;1.10;;
60847;SDS011;46681;47.696;9.140;2023-08-07T19:53:38;1.83;;;1.10;;
60847;SDS011;46681;47.696;9.140;2023-08-07T19:56:04;1.30;;;1.20;;
60847;SDS011;46681;47.696;9.140;2023-08-07T19:58:34;1.13;;;1.00;;
60847;SDS011;46681;47.696;9.140;2023-08-07T20:01:08;1.37;;;0.97;;
60847;SDS011;46681;47.696;9.140;2023-08-07T20:03:33;0.93;;;0.93;;
60847;SDS011;46681;47.696;9.140;2023-08-07T20:06:00;1.80;;;1.27;;
60847;SDS011;46681;47.696;9.140;2023-08-07T20:08:27;1.80;;;1.20;;
60847;SDS011;46681;47.696;9.140;2023-08-07T20:10:57;1.40;;;1.30;;
60847;SDS011;46681;47.696;9.140;2023-08-07T20:13:27;1.30;;;1.20;;
60847;SDS011;46681;47.696;9.140;2023-08-07T20:15:57;1.33;;;1.23;;
60847;SDS011;46681;47.696;9.140;2023-08-07T20:18:28;1.47;;;1.10;;
60847;SDS011;46681;47.696;9.140;2023-08-07T20:21:00;1.17;;;1.03;;
60847;SDS011;46681;47.696;9.140;2023-08-07T20:23:25;1.63;;;1.00;;
60847;SDS011;46681;47.696;9.140;2023-08-07T20:25:51;1.00;;;1.00;;
60847;SDS011;46681;47.696;9.140;2023-08-07T20:28:20;1.23;;;1.00;;
60847;SDS011;46681;47.696;9.140;2023-08-07T20:30:47;1.40;;;1.30;;
60847;SDS011;46681;47.696;9.140;2023-08-07T20:33:15;1.07;;;1.00;;
60847;SDS011;46681;47.696;9.140;2023-08-07T20:35:41;1.40;;;1.30;;
60847;SDS011;46681;47.696;9.140;2023-08-07T20:38:06;1.23;;;0.90;;
60847;SDS011;46681;47.696;9.140;2023-08-07T20:40:34;1.43;;;1.20;;
60847;SDS011;46681;47.696;9.140;2023-08-07T20:42:59;1.60;;;1.30;;
60847;SDS011;46681;47.696;9.140;2023-08-07T20:45:25;1.30;;;1.20;;
60847;SDS011;46681;47.696;9.140;2023-08-07T20:47:53;1.00;;;1.00;;
60847;SDS011;46681;47.696;9.140;2023-08-07T20:50:22;1.40;;;1.33;;
60847;SDS011;46681;47.696;9.140;2023-08-07T20:52:51;1.23;;;1.20;;
60847;SDS011;46681;47.696;9.140;2023-08-07T20:55:17;1.33;;;1.00;;
60847;SDS011;46681;47.696;9.140;2023-08-07T20:57:45;1.40;;;1.30;;
60847;SDS011;46681;47.696;9.140;2023-08-07T21:00:12;1.27;;;1.10;;
60847;SDS011;46681;47.696;9.140;2023-08-07T21:02:40;1.10;;;1.10;;
60847;SDS011;46681;47.696;9.140;2023-08-07T21:05:08;1.10;;;1.00;;
60847;SDS011;46681;47.696;9.140;2023-08-07T21:07:33;2.13;;;1.20;;
60847;SDS011;46681;47.696;9.140;2023-08-07T21:09:59;1.30;;;1.20;;
60847;SDS011;46681;47.696;9.140;2023-08-07T21:12:25;0.90;;;0.90;;
60847;SDS011;46681;47.696;9.140;2023-08-07T21:14:51;1.00;;;1.00;;
60847;SDS011;46681;47.696;9.140;2023-08-07T21:17:17;1.63;;;0.80;;
60847;SDS011;46681;47.696;9.140;2023-08-07T21:19:42;1.37;;;1.20;;
60847;SDS011;46681;47.696;9.140;2023-08-07T21:22:11;1.20;;;1.00;;
60847;SDS011;46681;47.696;9.140;2023-08-07T21:24:36;1.07;;;1.07;;
60847;SDS011;46681;47.696;9.140;2023-08-07T21:27:02;2.13;;;0.97;;
60847;SDS011;46681;47.696;9.140;2023-08-07T21:29:27;1.07;;;1.07;;
60847;SDS011;46681;47.696;9.140;2023-08-07T21:31:53;1.53;;;0.90;;
60847;SDS011;46681;47.696;9.140;2023-08-07T21:34:18;1.97;;;1.10;;
60847;SDS011;46681;47.696;9.140;2023-08-07T21:36:44;2.00;;;1.10;;
60847;SDS011;46681;47.696;9.140;2023-08-07T21:39:09;1.03;;;1.03;;
60847;SDS011;46681;47.696;9.140;2023-08-07T21:41:35;2.23;;;1.00;;
60847;SDS011;46681;47.696;9.140;2023-08-07T21:44:02;1.90;;;1.10;;
60847;SDS011;46681;47.696;9.140;2023-08-07T21:46:29;1.00;;;1.00;;
60847;SDS011;46681;47.696;9.140;2023-08-07T21:48:55;1.77;;;1.10;;
60847;SDS011;46681;47.696;9.140;2023-08-07T21:51:20;0.90;;;0.90;;
60847;SDS011;46681;47.696;9.140;2023-08-07T21:53:46;0.90;;;0.90;;
60847;SDS011;46681;47.696;9.140;2023-08-07T21:56:14;0.90;;;0.90;;
60847;SDS011;46681;47.696;9.140;2023-08-07T21:58:42;2.00;;;1.00;;